sensor_id;sensor_type;location;lat;lon;timestamp;temperature;humidity
77727;SHT30;68312;53.502;10.030;2023-06-22T00:00:58;15.82;88.67
77727;SHT30;68312;53.502;10.030;2023-06-22T00:03:25;15.87;88.97
77727;SHT30;68312;53.502;10.030;2023-06-22T00:05:51;15.87;89.24
77727;SHT30;68312;53.502;10.030;2023-06-22T00:08:18;15.82;89.54
77727;SHT30;68312;53.502;10.030;2023-06-22T00:10:45;15.77;89.65
77727;SHT30;68312;53.502;10.030;2023-06-22T00:13:12;15.78;90.13
77727;SHT30;68312;53.502;10.030;2023-06-22T00:15:40;15.77;90.36
77727;SHT30;68312;53.502;10.030;2023-06-22T00:18:07;15.79;90.56
77727;SHT30;68312;53.502;10.030;2023-06-22T00:20:34;15.81;90.73
77727;SHT30;68312;53.502;10.030;2023-06-22T00:23:00;15.79;90.90
77727;SHT30;68312;53.502;10.030;2023-06-22T00:25:26;15.78;90.90
77727;SHT30;68312;53.502;10.030;2023-06-22T00:27:51;15.85;90.74
77727;SHT30;68312;53.502;10.030;2023-06-22T00:30:18;15.94;90.60
77727;SHT30;68312;53.502;10.030;2023-06-22T00:32:45;15.95;90.55
77727;SHT30;68312;53.502;10.030;2023-06-22T00:35:12;15.94;90.43
77727;SHT30;68312;53.502;10.030;2023-06-22T00:37:38;15.92;90.38
77727;SHT30;68312;53.502;10.030;2023-06-22T00:40:05;15.88;90.15
77727;SHT30;68312;53.502;10.030;2023-06-22T00:42:31;15.89;90.26
77727;SHT30;68312;53.502;10.030;2023-06-22T00:44:56;15.84;90.31
77727;SHT30;68312;53.502;10.030;2023-06-22T00:47:22;15.84;90.50
77727;SHT30;68312;53.502;10.030;2023-06-22T00:49:49;15.79;90.70
77727;SHT30;68312;53.502;10.030;2023-06-22T00:52:15;15.81;90.92
77727;SHT30;68312;53.502;10.030;2023-06-22T00:54:41;15.81;90.92
77727;SHT30;68312;53.502;10.030;2023-06-22T00:57:06;15.84;91.04
77727;SHT30;68312;53.502;10.030;2023-06-22T00:59:32;15.84;91.28
77727;SHT30;68312;53.502;10.030;2023-06-22T01:01:58;15.85;91.32
77727;SHT30;68312;53.502;10.030;2023-06-22T01:04:34;15.85;91.14
77727;SHT30;68312;53.502;10.030;2023-06-22T01:07:21;15.82;91.01
77727;SHT30;68312;53.502;10.030;2023-06-22T01:10:25;15.77;91.04
77727;SHT30;68312;53.502;10.030;2023-06-22T01:13:02;15.72;91.09
77727;SHT30;68312;53.502;10.030;2023-06-22T01:15:46;15.72;91.02
77727;SHT30;68312;53.502;10.030;2023-06-22T01:18:29;15.71;91.02
77727;SHT30;68312;53.502;10.030;2023-06-22T01:20:56;15.68;91.06
77727;SHT30;68312;53.502;10.030;2023-06-22T01:26:37;15.68;91.39
77727;SHT30;68312;53.502;10.030;2023-06-22T01:29:10;15.68;91.46
77727;SHT30;68312;53.502;10.030;2023-06-22T01:31:39;15.67;91.48
77727;SHT30;68312;53.502;10.030;2023-06-22T01:34:08;15.70;91.49
77727;SHT30;68312;53.502;10.030;2023-06-22T01:36:35;15.70;91.64
77727;SHT30;68312;53.502;10.030;2023-06-22T01:39:05;15.70;91.66
77727;SHT30;68312;53.502;10.030;2023-06-22T01:41:38;15.68;91.83
77727;SHT30;68312;53.502;10.030;2023-06-22T01:44:06;15.67;91.91
77727;SHT30;68312;53.502;10.030;2023-06-22T01:46:38;15.67;92.09
77727;SHT30;68312;53.502;10.030;2023-06-22T01:49:05;15.65;92.01
77727;SHT30;68312;53.502;10.030;2023-06-22T01:51:32;15.67;92.20
77727;SHT30;68312;53.502;10.030;2023-06-22T01:53:57;15.65;92.34
77727;SHT30;68312;53.502;10.030;2023-06-22T01:56:23;15.57;92.21
77727;SHT30;68312;53.502;10.030;2023-06-22T01:59:14;15.55;92.34
77727;SHT30;68312;53.502;10.030;2023-06-22T02:02:06;15.53;92.42
77727;SHT30;68312;53.502;10.030;2023-06-22T02:04:54;15.47;92.52
77727;SHT30;68312;53.502;10.030;2023-06-22T02:07:32;15.43;92.64
77727;SHT30;68312;53.502;10.030;2023-06-22T02:10:06;15.43;92.86
77727;SHT30;68312;53.502;10.030;2023-06-22T02:12:34;15.39;92.92
77727;SHT30;68312;53.502;10.030;2023-06-22T02:15:01;15.36;92.94
77727;SHT30;68312;53.502;10.030;2023-06-22T02:17:28;15.39;93.06
77727;SHT30;68312;53.502;10.030;2023-06-22T02:19:54;15.43;93.18
77727;SHT30;68312;53.502;10.030;2023-06-22T02:22:19;15.47;93.16
77727;SHT30;68312;53.502;10.030;2023-06-22T02:24:45;15.46;93.08
77727;SHT30;68312;53.502;10.030;2023-06-22T02:27:10;15.46;93.04
77727;SHT30;68312;53.502;10.030;2023-06-22T02:29:36;15.49;93.09
77727;SHT30;68312;53.502;10.030;2023-06-22T02:32:02;15.46;93.06
77727;SHT30;68312;53.502;10.030;2023-06-22T02:34:28;15.44;92.93
77727;SHT30;68312;53.502;10.030;2023-06-22T02:36:53;15.37;92.87
77727;SHT30;68312;53.502;10.030;2023-06-22T02:39:19;15.30;92.89
77727;SHT30;68312;53.502;10.030;2023-06-22T02:41:46;15.30;92.97
77727;SHT30;68312;53.502;10.030;2023-06-22T02:44:12;15.26;93.02
77727;SHT30;68312;53.502;10.030;2023-06-22T02:46:37;15.23;93.05
77727;SHT30;68312;53.502;10.030;2023-06-22T02:49:03;15.22;93.16
77727;SHT30;68312;53.502;10.030;2023-06-22T02:51:29;15.19;93.17
77727;SHT30;68312;53.502;10.030;2023-06-22T02:53:58;15.18;93.24
77727;SHT30;68312;53.502;10.030;2023-06-22T02:56:23;15.20;93.34
77727;SHT30;68312;53.502;10.030;2023-06-22T02:58:49;15.24;93.51
77727;SHT30;68312;53.502;10.030;2023-06-22T03:01:15;15.19;93.24
77727;SHT30;68312;53.502;10.030;2023-06-22T03:03:41;15.12;93.31
77727;SHT30;68312;53.502;10.030;2023-06-22T03:06:06;15.10;93.41
77727;SHT30;68312;53.502;10.030;2023-06-22T03:08:32;15.07;93.42
77727;SHT30;68312;53.502;10.030;2023-06-22T03:11:00;15.04;93.52
77727;SHT30;68312;53.502;10.030;2023-06-22T03:13:27;15.07;93.67
77727;SHT30;68312;53.502;10.030;2023-06-22T03:15:52;15.13;93.80
77727;SHT30;68312;53.502;10.030;2023-06-22T03:18:18;15.10;93.71
77727;SHT30;68312;53.502;10.030;2023-06-22T03:20:46;15.10;93.56
77727;SHT30;68312;53.502;10.030;2023-06-22T03:23:12;15.07;93.59
77727;SHT30;68312;53.502;10.030;2023-06-22T03:25:37;15.09;93.60
77727;SHT30;68312;53.502;10.030;2023-06-22T03:28:03;15.10;93.71
77727;SHT30;68312;53.502;10.030;2023-06-22T03:30:28;15.12;93.74
77727;SHT30;68312;53.502;10.030;2023-06-22T03:32:54;15.13;93.77
77727;SHT30;68312;53.502;10.030;2023-06-22T03:35:19;15.16;93.81
77727;SHT30;68312;53.502;10.030;2023-06-22T03:37:44;15.22;93.94
77727;SHT30;68312;53.502;10.030;2023-06-22T03:40:10;15.19;93.73
77727;SHT30;68312;53.502;10.030;2023-06-22T03:42:36;15.23;93.77
77727;SHT30;68312;53.502;10.030;2023-06-22T03:45:03;15.30;93.77
77727;SHT30;68312;53.502;10.030;2023-06-22T03:47:29;15.43;93.83
77727;SHT30;68312;53.502;10.030;2023-06-22T03:49:55;15.57;93.62
77727;SHT30;68312;53.502;10.030;2023-06-22T03:52:21;15.68;93.47
77727;SHT30;68312;53.502;10.030;2023-06-22T03:54:48;15.77;93.09
77727;SHT30;68312;53.502;10.030;2023-06-22T03:57:13;15.78;92.75
77727;SHT30;68312;53.502;10.030;2023-06-22T03:59:39;15.85;92.77
77727;SHT30;68312;53.502;10.030;2023-06-22T04:02:04;15.88;92.68
77727;SHT30;68312;53.502;10.030;2023-06-22T04:04:30;15.92;92.64
77727;SHT30;68312;53.502;10.030;2023-06-22T04:06:55;15.99;92.75
77727;SHT30;68312;53.502;10.030;2023-06-22T04:09:21;16.08;92.77
77727;SHT30;68312;53.502;10.030;2023-06-22T04:11:46;16.16;92.72
77727;SHT30;68312;53.502;10.030;2023-06-22T04:14:12;16.22;92.29
77727;SHT30;68312;53.502;10.030;2023-06-22T04:16:38;16.25;92.07
77727;SHT30;68312;53.502;10.030;2023-06-22T04:19:03;16.30;92.03
77727;SHT30;68312;53.502;10.030;2023-06-22T04:21:29;16.37;92.07
77727;SHT30;68312;53.502;10.030;2023-06-22T04:23:54;16.46;91.99
77727;SHT30;68312;53.502;10.030;2023-06-22T04:26:20;16.53;91.88
77727;SHT30;68312;53.502;10.030;2023-06-22T04:28:45;16.60;91.72
77727;SHT30;68312;53.502;10.030;2023-06-22T04:31:11;16.67;91.53
77727;SHT30;68312;53.502;10.030;2023-06-22T04:33:36;16.76;90.95
77727;SHT30;68312;53.502;10.030;2023-06-22T04:36:02;16.83;90.44
77727;SHT30;68312;53.502;10.030;2023-06-22T04:38:28;16.92;90.51
77727;SHT30;68312;53.502;10.030;2023-06-22T04:40:53;17.00;90.56
77727;SHT30;68312;53.502;10.030;2023-06-22T04:43:20;17.04;90.28
77727;SHT30;68312;53.502;10.030;2023-06-22T04:45:45;17.12;90.40
77727;SHT30;68312;53.502;10.030;2023-06-22T04:48:11;17.18;90.27
77727;SHT30;68312;53.502;10.030;2023-06-22T04:50:37;17.28;89.98
77727;SHT30;68312;53.502;10.030;2023-06-22T04:53:03;17.38;90.05
77727;SHT30;68312;53.502;10.030;2023-06-22T04:55:28;17.49;90.16
77727;SHT30;68312;53.502;10.030;2023-06-22T04:57:54;17.63;90.04
77727;SHT30;68312;53.502;10.030;2023-06-22T05:00:20;17.70;89.96
77727;SHT30;68312;53.502;10.030;2023-06-22T05:02:46;17.79;89.20
77727;SHT30;68312;53.502;10.030;2023-06-22T05:05:13;17.84;89.09
77727;SHT30;68312;53.502;10.030;2023-06-22T05:07:51;17.93;88.82
77727;SHT30;68312;53.502;10.030;2023-06-22T05:10:16;17.96;88.46
77727;SHT30;68312;53.502;10.030;2023-06-22T05:12:42;18.00;87.23
77727;SHT30;68312;53.502;10.030;2023-06-22T05:15:09;18.08;86.87
77727;SHT30;68312;53.502;10.030;2023-06-22T05:17:36;18.13;86.40
77727;SHT30;68312;53.502;10.030;2023-06-22T05:20:03;18.14;84.99
77727;SHT30;68312;53.502;10.030;2023-06-22T05:22:28;18.23;84.79
77727;SHT30;68312;53.502;10.030;2023-06-22T05:24:55;18.25;82.86
77727;SHT30;68312;53.502;10.030;2023-06-22T05:27:20;18.37;82.32
77727;SHT30;68312;53.502;10.030;2023-06-22T05:29:46;18.48;83.08
77727;SHT30;68312;53.502;10.030;2023-06-22T05:32:11;18.54;82.55
77727;SHT30;68312;53.502;10.030;2023-06-22T05:34:38;18.56;81.56
77727;SHT30;68312;53.502;10.030;2023-06-22T05:37:04;18.59;80.51
77727;SHT30;68312;53.502;10.030;2023-06-22T05:39:30;18.72;78.65
77727;SHT30;68312;53.502;10.030;2023-06-22T05:41:55;18.88;78.11
77727;SHT30;68312;53.502;10.030;2023-06-22T05:44:21;19.02;78.47
77727;SHT30;68312;53.502;10.030;2023-06-22T05:46:46;19.13;78.60
77727;SHT30;68312;53.502;10.030;2023-06-22T05:49:13;19.14;76.34
77727;SHT30;68312;53.502;10.030;2023-06-22T05:51:39;19.26;72.52
77727;SHT30;68312;53.502;10.030;2023-06-22T05:54:06;19.47;73.68
77727;SHT30;68312;53.502;10.030;2023-06-22T05:56:31;19.61;72.33
77727;SHT30;68312;53.502;10.030;2023-06-22T05:58:57;19.78;70.24
77727;SHT30;68312;53.502;10.030;2023-06-22T06:01:22;19.85;72.14
77727;SHT30;68312;53.502;10.030;2023-06-22T06:03:48;19.95;71.13
77727;SHT30;68312;53.502;10.030;2023-06-22T06:06:13;19.93;69.26
77727;SHT30;68312;53.502;10.030;2023-06-22T06:08:39;20.05;68.68
77727;SHT30;68312;53.502;10.030;2023-06-22T06:11:04;20.28;71.99
77727;SHT30;68312;53.502;10.030;2023-06-22T06:13:30;20.32;69.67
77727;SHT30;68312;53.502;10.030;2023-06-22T06:15:56;20.39;69.54
77727;SHT30;68312;53.502;10.030;2023-06-22T06:18:22;20.49;69.07
77727;SHT30;68312;53.502;10.030;2023-06-22T06:20:47;20.61;68.47
77727;SHT30;68312;53.502;10.030;2023-06-22T06:23:13;20.73;68.72
77727;SHT30;68312;53.502;10.030;2023-06-22T06:25:38;20.95;70.80
77727;SHT30;68312;53.502;10.030;2023-06-22T06:28:05;21.05;71.13
77727;SHT30;68312;53.502;10.030;2023-06-22T06:30:30;21.09;67.05
77727;SHT30;68312;53.502;10.030;2023-06-22T06:32:56;21.31;66.29
77727;SHT30;68312;53.502;10.030;2023-06-22T06:35:22;21.52;68.39
77727;SHT30;68312;53.502;10.030;2023-06-22T06:37:49;21.73;65.70
77727;SHT30;68312;53.502;10.030;2023-06-22T06:40:18;21.86;65.37
77727;SHT30;68312;53.502;10.030;2023-06-22T06:42:46;21.80;66.90
77727;SHT30;68312;53.502;10.030;2023-06-22T06:45:19;21.70;68.09
77727;SHT30;68312;53.502;10.030;2023-06-22T06:47:46;21.69;67.55
77727;SHT30;68312;53.502;10.030;2023-06-22T06:50:15;21.85;68.34
77727;SHT30;68312;53.502;10.030;2023-06-22T06:52:41;22.06;67.09
77727;SHT30;68312;53.502;10.030;2023-06-22T06:55:08;22.11;65.26
77727;SHT30;68312;53.502;10.030;2023-06-22T06:57:35;22.37;64.59
77727;SHT30;68312;53.502;10.030;2023-06-22T07:00:00;22.56;65.28
77727;SHT30;68312;53.502;10.030;2023-06-22T07:02:26;22.54;63.28
77727;SHT30;68312;53.502;10.030;2023-06-22T07:04:52;22.44;63.88
77727;SHT30;68312;53.502;10.030;2023-06-22T07:07:17;22.35;64.90
77727;SHT30;68312;53.502;10.030;2023-06-22T07:09:43;22.13;67.07
77727;SHT30;68312;53.502;10.030;2023-06-22T07:12:08;21.96;66.87
77727;SHT30;68312;53.502;10.030;2023-06-22T07:14:34;21.87;65.22
77727;SHT30;68312;53.502;10.030;2023-06-22T07:16:59;21.85;67.62
77727;SHT30;68312;53.502;10.030;2023-06-22T07:19:26;21.83;69.64
77727;SHT30;68312;53.502;10.030;2023-06-22T07:21:54;22.04;69.42
77727;SHT30;68312;53.502;10.030;2023-06-22T07:24:21;22.40;68.07
77727;SHT30;68312;53.502;10.030;2023-06-22T07:26:48;22.66;63.87
77727;SHT30;68312;53.502;10.030;2023-06-22T07:29:14;22.82;67.30
77727;SHT30;68312;53.502;10.030;2023-06-22T07:31:40;22.75;68.49
77727;SHT30;68312;53.502;10.030;2023-06-22T07:34:05;22.68;63.65
77727;SHT30;68312;53.502;10.030;2023-06-22T07:36:31;22.92;60.59
77727;SHT30;68312;53.502;10.030;2023-06-22T07:38:56;23.50;62.91
77727;SHT30;68312;53.502;10.030;2023-06-22T07:41:22;23.97;62.04
77727;SHT30;68312;53.502;10.030;2023-06-22T07:43:50;24.35;59.35
77727;SHT30;68312;53.502;10.030;2023-06-22T07:46:15;24.43;59.49
77727;SHT30;68312;53.502;10.030;2023-06-22T07:48:41;24.43;58.91
77727;SHT30;68312;53.502;10.030;2023-06-22T07:51:07;24.20;59.06
77727;SHT30;68312;53.502;10.030;2023-06-22T07:53:33;24.15;56.79
77727;SHT30;68312;53.502;10.030;2023-06-22T07:55:58;24.18;57.70
77727;SHT30;68312;53.502;10.030;2023-06-22T07:58:24;24.11;58.80
77727;SHT30;68312;53.502;10.030;2023-06-22T08:00:49;24.15;61.76
77727;SHT30;68312;53.502;10.030;2023-06-22T08:03:15;24.20;59.39
77727;SHT30;68312;53.502;10.030;2023-06-22T08:05:41;24.08;59.88
77727;SHT30;68312;53.502;10.030;2023-06-22T08:08:06;24.09;59.83
77727;SHT30;68312;53.502;10.030;2023-06-22T08:10:32;24.48;59.20
77727;SHT30;68312;53.502;10.030;2023-06-22T08:13:00;24.66;59.07
77727;SHT30;68312;53.502;10.030;2023-06-22T08:15:26;24.90;53.18
77727;SHT30;68312;53.502;10.030;2023-06-22T08:17:51;25.04;53.66
77727;SHT30;68312;53.502;10.030;2023-06-22T08:20:17;25.38;52.48
77727;SHT30;68312;53.502;10.030;2023-06-22T08:22:43;25.69;56.47
77727;SHT30;68312;53.502;10.030;2023-06-22T08:25:10;26.31;52.37
77727;SHT30;68312;53.502;10.030;2023-06-22T08:27:36;26.61;50.88
77727;SHT30;68312;53.502;10.030;2023-06-22T08:30:02;26.25;51.49
77727;SHT30;68312;53.502;10.030;2023-06-22T08:32:30;25.66;54.95
77727;SHT30;68312;53.502;10.030;2023-06-22T08:34:56;25.21;52.20
77727;SHT30;68312;53.502;10.030;2023-06-22T08:37:23;25.06;60.20
77727;SHT30;68312;53.502;10.030;2023-06-22T08:39:49;24.97;58.53
77727;SHT30;68312;53.502;10.030;2023-06-22T08:42:14;25.07;52.49
77727;SHT30;68312;53.502;10.030;2023-06-22T08:44:40;25.10;54.50
77727;SHT30;68312;53.502;10.030;2023-06-22T08:47:05;25.24;56.34
77727;SHT30;68312;53.502;10.030;2023-06-22T08:49:31;25.18;57.39
77727;SHT30;68312;53.502;10.030;2023-06-22T08:51:57;26.31;55.04
77727;SHT30;68312;53.502;10.030;2023-06-22T08:54:22;27.47;52.06
77727;SHT30;68312;53.502;10.030;2023-06-22T08:56:48;28.19;48.51
77727;SHT30;68312;53.502;10.030;2023-06-22T08:59:13;29.12;46.56
77727;SHT30;68312;53.502;10.030;2023-06-22T09:01:39;29.61;43.15
77727;SHT30;68312;53.502;10.030;2023-06-22T09:04:04;29.62;41.04
77727;SHT30;68312;53.502;10.030;2023-06-22T09:06:33;29.59;41.03
77727;SHT30;68312;53.502;10.030;2023-06-22T09:08:58;29.95;41.57
77727;SHT30;68312;53.502;10.030;2023-06-22T09:11:23;30.53;42.42
77727;SHT30;68312;53.502;10.030;2023-06-22T09:13:49;30.92;42.56
77727;SHT30;68312;53.502;10.030;2023-06-22T09:16:15;30.60;38.68
77727;SHT30;68312;53.502;10.030;2023-06-22T09:18:40;30.92;39.38
77727;SHT30;68312;53.502;10.030;2023-06-22T09:21:05;30.96;38.56
77727;SHT30;68312;53.502;10.030;2023-06-22T09:23:31;30.85;39.50
77727;SHT30;68312;53.502;10.030;2023-06-22T09:25:56;30.91;39.05
77727;SHT30;68312;53.502;10.030;2023-06-22T09:28:22;31.05;39.71
77727;SHT30;68312;53.502;10.030;2023-06-22T09:30:47;31.29;38.93
77727;SHT30;68312;53.502;10.030;2023-06-22T09:33:13;31.32;41.51
77727;SHT30;68312;53.502;10.030;2023-06-22T09:35:41;30.84;38.62
77727;SHT30;68312;53.502;10.030;2023-06-22T09:38:07;30.71;39.50
77727;SHT30;68312;53.502;10.030;2023-06-22T09:40:32;30.49;40.62
77727;SHT30;68312;53.502;10.030;2023-06-22T09:42:58;30.84;39.04
77727;SHT30;68312;53.502;10.030;2023-06-22T09:45:23;31.15;40.84
77727;SHT30;68312;53.502;10.030;2023-06-22T09:47:49;31.40;39.01
77727;SHT30;68312;53.502;10.030;2023-06-22T09:50:14;31.66;39.93
77727;SHT30;68312;53.502;10.030;2023-06-22T09:52:40;31.69;37.27
77727;SHT30;68312;53.502;10.030;2023-06-22T09:55:05;31.57;38.91
77727;SHT30;68312;53.502;10.030;2023-06-22T09:57:31;31.95;39.32
77727;SHT30;68312;53.502;10.030;2023-06-22T09:59:56;32.22;39.48
77727;SHT30;68312;53.502;10.030;2023-06-22T10:02:22;32.40;37.76
77727;SHT30;68312;53.502;10.030;2023-06-22T10:04:48;32.28;37.04
77727;SHT30;68312;53.502;10.030;2023-06-22T10:07:13;32.27;38.62
77727;SHT30;68312;53.502;10.030;2023-06-22T10:09:39;30.82;40.57
77727;SHT30;68312;53.502;10.030;2023-06-22T10:12:05;30.06;43.86
77727;SHT30;68312;53.502;10.030;2023-06-22T10:14:30;29.46;45.42
77727;SHT30;68312;53.502;10.030;2023-06-22T10:16:56;28.84;43.37
77727;SHT30;68312;53.502;10.030;2023-06-22T10:19:21;28.19;44.60
77727;SHT30;68312;53.502;10.030;2023-06-22T10:21:47;28.36;48.68
77727;SHT30;68312;53.502;10.030;2023-06-22T10:24:12;28.87;47.83
77727;SHT30;68312;53.502;10.030;2023-06-22T10:26:38;30.03;46.88
77727;SHT30;68312;53.502;10.030;2023-06-22T10:29:03;30.75;45.96
77727;SHT30;68312;53.502;10.030;2023-06-22T10:31:29;31.34;41.41
77727;SHT30;68312;53.502;10.030;2023-06-22T10:33:55;31.69;41.82
77727;SHT30;68312;53.502;10.030;2023-06-22T10:36:22;32.00;40.92
77727;SHT30;68312;53.502;10.030;2023-06-22T10:38:48;31.66;40.86
77727;SHT30;68312;53.502;10.030;2023-06-22T10:41:17;31.64;37.63
77727;SHT30;68312;53.502;10.030;2023-06-22T10:43:43;31.97;41.66
77727;SHT30;68312;53.502;10.030;2023-06-22T10:46:09;32.22;37.48
77727;SHT30;68312;53.502;10.030;2023-06-22T10:48:34;32.02;40.76
77727;SHT30;68312;53.502;10.030;2023-06-22T10:51:00;32.19;40.31
77727;SHT30;68312;53.502;10.030;2023-06-22T10:53:25;32.08;39.23
77727;SHT30;68312;53.502;10.030;2023-06-22T10:55:51;32.45;39.32
77727;SHT30;68312;53.502;10.030;2023-06-22T10:58:18;32.60;40.28
77727;SHT30;68312;53.502;10.030;2023-06-22T11:00:46;32.40;38.87
77727;SHT30;68312;53.502;10.030;2023-06-22T11:03:12;32.46;38.50
77727;SHT30;68312;53.502;10.030;2023-06-22T11:05:38;32.49;37.57
77727;SHT30;68312;53.502;10.030;2023-06-22T11:08:03;32.46;37.06
77727;SHT30;68312;53.502;10.030;2023-06-22T11:10:29;32.24;36.90
77727;SHT30;68312;53.502;10.030;2023-06-22T11:12:54;32.04;38.99
77727;SHT30;68312;53.502;10.030;2023-06-22T11:15:20;32.19;40.23
77727;SHT30;68312;53.502;10.030;2023-06-22T11:17:45;32.60;41.04
77727;SHT30;68312;53.502;10.030;2023-06-22T11:20:11;32.40;37.75
77727;SHT30;68312;53.502;10.030;2023-06-22T11:22:41;32.53;40.84
77727;SHT30;68312;53.502;10.030;2023-06-22T11:25:07;33.31;38.52
77727;SHT30;68312;53.502;10.030;2023-06-22T11:27:33;33.82;40.53
77727;SHT30;68312;53.502;10.030;2023-06-22T11:29:59;33.51;37.77
77727;SHT30;68312;53.502;10.030;2023-06-22T11:32:24;33.13;37.34
77727;SHT30;68312;53.502;10.030;2023-06-22T11:34:50;32.82;42.17
77727;SHT30;68312;53.502;10.030;2023-06-22T11:37:16;32.32;40.49
77727;SHT30;68312;53.502;10.030;2023-06-22T11:39:42;31.70;40.57
77727;SHT30;68312;53.502;10.030;2023-06-22T11:42:08;31.66;40.12
77727;SHT30;68312;53.502;10.030;2023-06-22T11:44:34;31.11;41.33
77727;SHT30;68312;53.502;10.030;2023-06-22T11:46:59;30.57;41.16
77727;SHT30;68312;53.502;10.030;2023-06-22T11:49:25;30.06;45.20
77727;SHT30;68312;53.502;10.030;2023-06-22T11:51:50;29.56;43.15
77727;SHT30;68312;53.502;10.030;2023-06-22T11:54:16;29.44;45.19
77727;SHT30;68312;53.502;10.030;2023-06-22T11:56:41;29.49;45.08
77727;SHT30;68312;53.502;10.030;2023-06-22T11:59:07;29.55;47.98
77727;SHT30;68312;53.502;10.030;2023-06-22T12:01:32;29.68;51.46
77727;SHT30;68312;53.502;10.030;2023-06-22T12:03:57;29.89;47.11
77727;SHT30;68312;53.502;10.030;2023-06-22T12:06:26;30.23;46.75
77727;SHT30;68312;53.502;10.030;2023-06-22T12:08:53;30.89;42.99
77727;SHT30;68312;53.502;10.030;2023-06-22T12:11:18;31.08;42.86
77727;SHT30;68312;53.502;10.030;2023-06-22T12:13:44;31.21;44.50
77727;SHT30;68312;53.502;10.030;2023-06-22T12:16:09;30.95;45.10
77727;SHT30;68312;53.502;10.030;2023-06-22T12:18:35;30.37;45.05
77727;SHT30;68312;53.502;10.030;2023-06-22T12:21:00;30.03;44.06
77727;SHT30;68312;53.502;10.030;2023-06-22T12:23:26;29.76;46.99
77727;SHT30;68312;53.502;10.030;2023-06-22T12:25:51;29.52;44.71
77727;SHT30;68312;53.502;10.030;2023-06-22T12:28:16;29.21;44.28
77727;SHT30;68312;53.502;10.030;2023-06-22T12:30:42;29.22;45.55
77727;SHT30;68312;53.502;10.030;2023-06-22T12:33:07;29.59;47.45
77727;SHT30;68312;53.502;10.030;2023-06-22T12:35:34;29.77;44.38
77727;SHT30;68312;53.502;10.030;2023-06-22T12:37:59;29.49;46.77
77727;SHT30;68312;53.502;10.030;2023-06-22T12:40:25;29.68;45.29
77727;SHT30;68312;53.502;10.030;2023-06-22T12:42:50;30.12;46.08
77727;SHT30;68312;53.502;10.030;2023-06-22T12:45:16;30.65;41.98
77727;SHT30;68312;53.502;10.030;2023-06-22T12:47:41;31.12;40.43
77727;SHT30;68312;53.502;10.030;2023-06-22T12:50:07;31.64;40.95
77727;SHT30;68312;53.502;10.030;2023-06-22T12:52:36;32.45;39.17
77727;SHT30;68312;53.502;10.030;2023-06-22T12:55:02;32.91;38.87
77727;SHT30;68312;53.502;10.030;2023-06-22T12:57:28;32.08;39.32
77727;SHT30;68312;53.502;10.030;2023-06-22T12:59:53;31.51;41.66
77727;SHT30;68312;53.502;10.030;2023-06-22T13:02:19;30.91;43.89
77727;SHT30;68312;53.502;10.030;2023-06-22T13:04:44;30.43;45.02
77727;SHT30;68312;53.502;10.030;2023-06-22T13:07:10;30.48;45.97
77727;SHT30;68312;53.502;10.030;2023-06-22T13:09:36;30.28;45.75
77727;SHT30;68312;53.502;10.030;2023-06-22T13:12:02;30.89;43.28
77727;SHT30;68312;53.502;10.030;2023-06-22T13:14:27;30.96;44.30
77727;SHT30;68312;53.502;10.030;2023-06-22T13:16:53;30.55;43.30
77727;SHT30;68312;53.502;10.030;2023-06-22T13:19:18;30.06;43.57
77727;SHT30;68312;53.502;10.030;2023-06-22T13:21:44;29.89;48.39
77727;SHT30;68312;53.502;10.030;2023-06-22T13:24:09;29.61;47.72
77727;SHT30;68312;53.502;10.030;2023-06-22T13:26:35;29.07;45.73
77727;SHT30;68312;53.502;10.030;2023-06-22T13:29:00;28.69;47.14
77727;SHT30;68312;53.502;10.030;2023-06-22T13:31:28;28.42;49.08
77727;SHT30;68312;53.502;10.030;2023-06-22T13:33:54;28.22;49.47
77727;SHT30;68312;53.502;10.030;2023-06-22T13:36:19;28.13;49.25
77727;SHT30;68312;53.502;10.030;2023-06-22T13:38:45;28.45;46.30
77727;SHT30;68312;53.502;10.030;2023-06-22T13:41:10;28.49;49.28
77727;SHT30;68312;53.502;10.030;2023-06-22T13:43:36;28.46;49.40
77727;SHT30;68312;53.502;10.030;2023-06-22T13:46:01;28.59;49.93
77727;SHT30;68312;53.502;10.030;2023-06-22T13:48:27;28.67;51.58
77727;SHT30;68312;53.502;10.030;2023-06-22T13:50:52;28.71;49.47
77727;SHT30;68312;53.502;10.030;2023-06-22T13:53:18;28.52;47.54
77727;SHT30;68312;53.502;10.030;2023-06-22T13:55:44;28.45;47.53
77727;SHT30;68312;53.502;10.030;2023-06-22T13:58:09;28.21;48.04
77727;SHT30;68312;53.502;10.030;2023-06-22T14:00:35;28.12;49.00
77727;SHT30;68312;53.502;10.030;2023-06-22T14:03:00;27.87;51.47
77727;SHT30;68312;53.502;10.030;2023-06-22T14:05:26;27.67;51.80
77727;SHT30;68312;53.502;10.030;2023-06-22T14:07:51;27.47;53.55
77727;SHT30;68312;53.502;10.030;2023-06-22T14:10:17;27.20;52.31
77727;SHT30;68312;53.502;10.030;2023-06-22T14:12:42;27.02;54.01
77727;SHT30;68312;53.502;10.030;2023-06-22T14:15:08;26.81;54.58
77727;SHT30;68312;53.502;10.030;2023-06-22T14:17:33;26.58;52.12
77727;SHT30;68312;53.502;10.030;2023-06-22T14:19:59;26.48;56.39
77727;SHT30;68312;53.502;10.030;2023-06-22T14:22:24;26.35;58.86
77727;SHT30;68312;53.502;10.030;2023-06-22T14:24:50;26.04;59.53
77727;SHT30;68312;53.502;10.030;2023-06-22T14:27:16;25.76;63.33
77727;SHT30;68312;53.502;10.030;2023-06-22T14:29:44;25.39;67.34
77727;SHT30;68312;53.502;10.030;2023-06-22T14:32:10;25.08;68.74
77727;SHT30;68312;53.502;10.030;2023-06-22T14:34:35;25.06;65.47
77727;SHT30;68312;53.502;10.030;2023-06-22T14:37:02;25.14;63.10
77727;SHT30;68312;53.502;10.030;2023-06-22T14:39:28;25.21;62.88
77727;SHT30;68312;53.502;10.030;2023-06-22T14:41:53;25.22;60.61
77727;SHT30;68312;53.502;10.030;2023-06-22T14:44:19;25.31;63.35
77727;SHT30;68312;53.502;10.030;2023-06-22T14:46:44;25.39;62.70
77727;SHT30;68312;53.502;10.030;2023-06-22T14:49:10;25.61;59.83
77727;SHT30;68312;53.502;10.030;2023-06-22T14:51:35;25.79;59.21
77727;SHT30;68312;53.502;10.030;2023-06-22T14:54:01;25.87;60.26
77727;SHT30;68312;53.502;10.030;2023-06-22T14:56:26;25.90;58.86
77727;SHT30;68312;53.502;10.030;2023-06-22T14:58:51;25.97;57.96
77727;SHT30;68312;53.502;10.030;2023-06-22T15:01:17;25.89;58.41
77727;SHT30;68312;53.502;10.030;2023-06-22T15:03:43;25.89;57.50
77727;SHT30;68312;53.502;10.030;2023-06-22T15:06:09;25.85;56.84
77727;SHT30;68312;53.502;10.030;2023-06-22T15:08:37;25.80;56.95
77727;SHT30;68312;53.502;10.030;2023-06-22T15:11:03;25.76;56.94
77727;SHT30;68312;53.502;10.030;2023-06-22T15:13:31;25.73;57.40